Terminal Aerodrome Forecast
Issued by NWS

Home | Current Version | Previous Version | Text Only | Print | Product List | Glossary Off
Versions: 1 2 3 4 5 6 7 8 9 10 11 12 13 14 15 16

000
FTUS43 KTOP 290001 AAA
TAFMHK
TAF AMD
KMHK 290001Z 2900/2924 05005KT P6SM VCTS SCT060CB
     FM290015 35020G40KT 5SM TSRA BKN040CB
     FM290100 33014G30KT 3SM -TSRA BKN025CB
     FM290300 03005KT P6SM SHRA VCTS BKN040CB
     FM290900 VRB02KT P6SM OVC120=

USA.gov is the U.S. government's official web portal to all federal, state and local government web resources and services.